Time;durP1;ratioP1;P1;durP2;ratioP2;P2;SDS_P1;SDS_P2;PMS_P1;PMS_P2;Temp;Humidity;BMP_temperature;BMP_pressure;BME280_temperature;BME280_humidity;BME280_pressure;Samples;Min_cycle;Max_cycle;Signal;HPM_P1;HPM_P2
2021/01/25 00:01:38;;;;;;;51.83;25.58;;;5.20;97.50;;;;;;5073697;28;20402;-71
2021/01/25 00:04:04;;;;;;;55.67;25.10;;;5.10;97.50;;;;;;5072040;28;20036;-70
2021/01/25 00:06:32;;;;;;;55.47;26.25;;;5.10;97.60;;;;;;5071996;28;20174;-72
2021/01/25 00:08:58;;;;;;;53.58;26.27;;;5.00;97.60;;;;;;5071650;28;20036;-71
2021/01/25 00:11:23;;;;;;;49.63;24.75;;;5.00;97.60;;;;;;5071822;28;20039;-71
2021/01/25 00:13:49;;;;;;;60.90;28.17;;;5.00;97.60;;;;;;5073560;28;20040;-71
2021/01/25 00:16:14;;;;;;;58.40;27.17;;;5.00;97.60;;;;;;5072298;28;20500;-70
2021/01/25 00:18:40;;;;;;;53.35;26.73;;;4.90;97.50;;;;;;5058617;28;20044;-71
2021/01/25 00:21:06;;;;;;;62.75;27.77;;;5.10;97.70;;;;;;5052088;28;20513;-72
2021/01/25 00:23:32;;;;;;;55.75;26.40;;;5.00;97.60;;;;;;5051697;28;20048;-70
2021/01/25 00:25:57;;;;;;;64.18;27.45;;;5.00;97.70;;;;;;5053386;28;20035;-70
2021/01/25 00:28:23;;;;;;;60.70;28.42;;;4.90;97.70;;;;;;5051580;28;20041;-70
2021/01/25 00:30:49;;;;;;;53.85;27.27;;;5.00;97.60;;;;;;5051690;28;20045;-70
2021/01/25 00:33:14;;;;;;;53.70;25.85;;;5.00;97.60;;;;;;5051667;28;20032;-71
2021/01/25 00:35:40;;;;;;;59.92;28.02;;;5.00;97.50;;;;;;5057001;28;20112;-71
2021/01/25 00:38:06;;;;;;;53.15;25.88;;;5.10;97.60;;;;;;5071928;28;20021;-71
2021/01/25 00:40:31;;;;;;;60.33;28.30;;;5.10;97.50;;;;;;5073089;28;20386;-70
2021/01/25 00:42:57;;;;;;;57.45;27.38;;;5.10;97.70;;;;;;5071625;28;20417;-70
2021/01/25 00:45:23;;;;;;;55.40;26.90;;;5.10;97.40;;;;;;5070798;28;20040;-71
2021/01/25 00:47:48;;;;;;;55.15;27.30;;;5.10;97.40;;;;;;5071751;28;20051;-71
2021/01/25 00:50:14;;;;;;;50.67;26.00;;;4.90;97.30;;;;;;5070827;28;20090;-71
2021/01/25 00:52:39;;;;;;;51.47;24.65;;;5.00;97.70;;;;;;5072281;28;20025;-70
2021/01/25 00:55:06;;;;;;;46.42;25.17;;;5.00;97.40;;;;;;5054545;28;20414;-71
2021/01/25 00:57:32;;;;;;;51.53;25.38;;;5.00;97.40;;;;;;5063660;28;20476;-70
2021/01/25 00:59:57;;;;;;;57.45;25.52;;;5.00;97.30;;;;;;5071399;28;20045;-71
2021/01/25 01:02:23;;;;;;;52.55;25.58;;;5.00;97.30;;;;;;5071480;28;20361;-72
2021/01/25 01:04:49;;;;;;;52.28;25.17;;;5.00;97.20;;;;;;5073065;28;20032;-72
2021/01/25 01:07:15;;;;;;;48.85;24.42;;;5.00;97.20;;;;;;5052917;28;20073;-72
2021/01/25 01:09:41;;;;;;;51.08;25.35;;;5.10;97.30;;;;;;5051335;28;20033;-70
2021/01/25 01:12:07;;;;;;;55.80;23.42;;;4.90;97.20;;;;;;5060413;28;20047;-70
2021/01/25 01:14:33;;;;;;;46.17;24.00;;;5.00;97.50;;;;;;5070616;28;20486;-71
2021/01/25 01:16:59;;;;;;;54.80;24.75;;;4.90;97.30;;;;;;5073244;28;20066;-70
2021/01/25 01:19:24;;;;;;;48.63;24.13;;;5.10;97.30;;;;;;5071311;28;20450;-71
2021/01/25 01:21:51;;;;;;;56.10;25.88;;;5.00;97.20;;;;;;5059807;27;20324;-70
2021/01/25 01:24:17;;;;;;;52.75;25.05;;;5.10;97.20;;;;;;5055098;28;20098;-70
2021/01/25 01:26:42;;;;;;;53.97;25.08;;;5.00;97.10;;;;;;5060620;28;20449;-71
2021/01/25 01:29:08;;;;;;;48.13;23.08;;;4.90;97.10;;;;;;5074999;28;20020;-71
2021/01/25 01:31:34;;;;;;;47.20;24.58;;;4.90;97.20;;;;;;5076436;28;20020;-71
2021/01/25 01:33:59;;;;;;;54.15;26.08;;;4.90;97.20;;;;;;5074962;28;20032;-71
2021/01/25 01:36:25;;;;;;;55.90;24.77;;;4.90;97.20;;;;;;5074771;28;20025;-70
2021/01/25 01:38:50;;;;;;;52.70;23.27;;;4.90;97.20;;;;;;5074461;28;20036;-72
2021/01/25 01:41:16;;;;;;;48.55;23.95;;;4.90;97.20;;;;;;5072895;28;20020;-70
2021/01/25 01:43:42;;;;;;;52.78;24.58;;;4.70;97.10;;;;;;5055471;28;20087;-70
2021/01/25 01:46:07;;;;;;;49.70;24.08;;;4.70;97.50;;;;;;5071982;28;20390;-70
2021/01/25 01:48:33;;;;;;;51.72;24.00;;;4.70;97.30;;;;;;5074361;28;20044;-70
2021/01/25 01:50:59;;;;;;;47.47;23.33;;;4.80;97.30;;;;;;5074966;28;20045;-72
2021/01/25 01:53:25;;;;;;;50.47;23.20;;;5.00;97.20;;;;;;5073525;28;20047;-70
2021/01/25 01:55:50;;;;;;;50.97;23.58;;;4.90;97.10;;;;;;5076272;28;20020;-70
2021/01/25 01:58:16;;;;;;;54.90;24.60;;;4.80;97.10;;;;;;5074587;28;20033;-70
2021/01/25 02:00:42;;;;;;;51.25;25.30;;;4.80;97.00;;;;;;5074449;28;20417;-70
2021/01/25 02:03:07;;;;;;;53.28;24.08;;;4.80;97.20;;;;;;5065353;28;20517;-70
2021/01/25 02:05:33;;;;;;;46.30;22.92;;;4.70;97.10;;;;;;5054341;28;20041;-70
2021/01/25 02:08:00;;;;;;;53.72;23.13;;;4.80;97.00;;;;;;5055803;28;20075;-70
2021/01/25 02:10:27;;;;;;;44.60;22.45;;;4.80;96.90;;;;;;5054511;28;20377;-71
2021/01/25 02:12:59;;;;;;;48.85;23.98;;;4.80;97.00;;;;;;5054385;28;20051;-70
2021/01/25 02:15:26;;;;;;;51.45;23.63;;;4.80;96.90;;;;;;5065688;28;20037;-71
2021/01/25 02:17:53;;;;;;;46.67;21.90;;;4.80;97.10;;;;;;5074161;28;20037;-71
2021/01/25 02:20:22;;;;;;;45.45;22.20;;;4.80;96.90;;;;;;5074226;28;20373;-70
2021/01/25 02:23:12;;;;;;;46.95;22.10;;;4.80;96.90;;;;;;5075459;28;20111;-71
2021/01/25 02:25:47;;;;;;;46.08;22.00;;;4.70;97.00;;;;;;5074305;28;20082;-71
2021/01/25 02:28:13;;;;;;;43.17;22.17;;;4.60;96.90;;;;;;5072769;28;20048;-70
2021/01/25 02:30:39;;;;;;;43.20;21.42;;;4.60;97.00;;;;;;5073517;28;20128;-71
2021/01/25 02:33:08;;;;;;;48.22;22.58;;;4.50;97.00;;;;;;5073778;28;20474;-70
2021/01/25 02:35:35;;;;;;;47.80;21.85;;;4.50;97.20;;;;;;5073809;28;20028;-70
2021/01/25 02:38:01;;;;;;;51.38;24.42;;;4.60;97.10;;;;;;5075311;28;20497;-69
2021/01/25 02:40:29;;;;;;;47.63;22.20;;;4.60;97.10;;;;;;5053537;28;20064;-70
2021/01/25 02:42:56;;;;;;;51.15;23.15;;;4.50;97.00;;;;;;5069148;28;20048;-71
2021/01/25 02:45:23;;;;;;;53.40;24.40;;;4.50;97.00;;;;;;5062362;28;20370;-70
2021/01/25 02:47:50;;;;;;;48.13;22.60;;;4.60;97.10;;;;;;5053547;28;20149;-71
2021/01/25 02:50:16;;;;;;;44.35;21.95;;;4.50;97.10;;;;;;5053298;28;20382;-70
2021/01/25 02:52:41;;;;;;;51.85;22.98;;;4.50;97.10;;;;;;5054974;28;20450;-71
2021/01/25 02:55:08;;;;;;;49.60;22.70;;;4.50;97.10;;;;;;5053369;28;20041;-70
2021/01/25 02:57:36;;;;;;;39.78;20.42;;;4.40;97.10;;;;;;5053281;28;20039;-71
2021/01/25 03:00:04;;;;;;;45.28;21.25;;;4.50;97.10;;;;;;5053308;28;20092;-70
2021/01/25 03:02:30;;;;;;;46.97;22.42;;;4.50;97.10;;;;;;5053104;28;20059;-71
2021/01/25 03:05:02;;;;;;;45.90;21.85;;;4.40;97.00;;;;;;5055042;28;20501;-70
2021/01/25 03:07:27;;;;;;;47.90;21.35;;;4.50;97.00;;;;;;5053783;28;20051;-71
2021/01/25 03:09:57;;;;;;;46.80;20.95;;;4.50;96.90;;;;;;5053074;28;20373;-71
2021/01/25 03:12:23;;;;;;;46.58;21.90;;;4.40;97.00;;;;;;5053104;28;20538;-71
2021/01/25 03:14:49;;;;;;;43.75;21.48;;;4.40;97.00;;;;;;5053240;28;20144;-70
2021/01/25 03:17:15;;;;;;;45.08;21.52;;;4.40;96.90;;;;;;5052954;28;20067;-70
2021/01/25 03:19:40;;;;;;;43.97;22.05;;;4.40;96.90;;;;;;5054382;28;20064;-71
2021/01/25 03:22:06;;;;;;;46.53;20.65;;;4.40;97.00;;;;;;5052734;28;20037;-71
2021/01/25 03:24:31;;;;;;;41.63;18.73;;;4.30;97.00;;;;;;5052644;28;20029;-70
2021/01/25 03:26:57;;;;;;;43.40;21.33;;;4.40;97.00;;;;;;5052746;28;20432;-70
2021/01/25 03:29:23;;;;;;;46.05;21.65;;;4.40;96.90;;;;;;5055181;28;20478;-70
2021/01/25 03:31:48;;;;;;;44.30;21.33;;;4.20;96.90;;;;;;5074317;28;20052;-70
2021/01/25 03:34:14;;;;;;;49.75;22.05;;;4.20;97.10;;;;;;5072553;28;20059;-71
2021/01/25 03:36:40;;;;;;;42.10;20.48;;;4.20;97.40;;;;;;5072585;28;20060;-70
2021/01/25 03:39:06;;;;;;;42.72;20.55;;;4.20;97.00;;;;;;5072126;28;20492;-70
2021/01/25 03:41:32;;;;;;;40.47;19.70;;;4.20;97.00;;;;;;5072586;28;20041;-70
2021/01/25 03:43:58;;;;;;;47.42;21.13;;;4.10;97.00;;;;;;5073629;28;20124;-69
2021/01/25 03:46:24;;;;;;;45.42;20.98;;;4.10;97.00;;;;;;5072535;28;20123;-70
2021/01/25 03:48:50;;;;;;;46.63;21.92;;;4.20;97.10;;;;;;5072217;28;20048;-71
2021/01/25 03:51:18;;;;;;;48.22;21.60;;;4.10;97.00;;;;;;5072284;28;20044;-70
2021/01/25 03:53:45;;;;;;;;;;;4.20;97.00;;;;;;5072870;28;20131;-70
2021/01/25 03:56:10;;;;;;;45.45;20.30;;;4.00;97.00;;;;;;5072165;28;19933;-70
2021/01/25 03:58:36;;;;;;;50.42;21.15;;;3.90;97.00;;;;;;5073852;28;20013;-70
2021/01/25 04:01:02;;;;;;;49.53;20.88;;;3.90;97.20;;;;;;5072290;28;20361;-72
2021/01/25 04:03:28;;;;;;;48.60;22.45;;;4.00;97.20;;;;;;5072104;28;20488;-70
2021/01/25 04:05:53;;;;;;;50.55;22.27;;;4.00;97.10;;;;;;5071939;28;20028;-71
2021/01/25 04:08:19;;;;;;;41.45;20.83;;;4.00;97.10;;;;;;5071730;28;20032;-72
2021/01/25 04:10:45;;;;;;;50.70;21.75;;;3.80;97.10;;;;;;5072633;28;20118;-72
2021/01/25 04:13:10;;;;;;;45.30;22.65;;;3.80;97.20;;;;;;5053217;28;20075;-71
2021/01/25 04:15:36;;;;;;;46.15;22.33;;;3.70;97.30;;;;;;5051750;28;20386;-71
2021/01/25 04:18:02;;;;;;;44.42;21.23;;;3.60;97.30;;;;;;5051791;28;20051;-71
2021/01/25 04:20:28;;;;;;;48.25;21.95;;;3.40;97.50;;;;;;5051946;28;20116;-70
2021/01/25 04:22:53;;;;;;;50.65;20.63;;;3.40;97.50;;;;;;5053351;28;20127;-70
2021/01/25 04:25:19;;;;;;;43.35;21.65;;;3.40;97.50;;;;;;5051997;28;20116;-70
2021/01/25 04:27:45;;;;;;;44.42;20.23;;;3.10;97.50;;;;;;5066044;28;20033;-70
2021/01/25 04:30:11;;;;;;;44.63;21.85;;;3.20;97.70;;;;;;5071898;28;20029;-70
2021/01/25 04:32:41;;;;;;;47.03;21.42;;;3.20;97.60;;;;;;5071790;28;20051;-70
2021/01/25 04:35:08;;;;;;;49.90;21.67;;;3.30;97.60;;;;;;5071025;28;20104;-71
2021/01/25 04:37:34;;;;;;;43.47;20.70;;;3.20;97.60;;;;;;5053296;28;20482;-71
2021/01/25 04:40:00;;;;;;;51.08;21.13;;;3.10;97.60;;;;;;5051270;28;20048;-71
2021/01/25 04:42:26;;;;;;;45.60;20.85;;;3.10;97.60;;;;;;5063211;28;20086;-71
2021/01/25 04:44:52;;;;;;;46.25;21.30;;;3.10;97.70;;;;;;5071784;28;20045;-71
2021/01/25 04:47:21;;;;;;;45.90;21.40;;;3.10;97.70;;;;;;5070526;28;20415;-70
2021/01/25 04:49:49;;;;;;;46.35;21.05;;;3.00;97.70;;;;;;5073078;28;20021;-70
2021/01/25 04:52:15;;;;;;;49.90;21.53;;;3.00;97.50;;;;;;5071391;28;20348;-71
2021/01/25 04:54:41;;;;;;;46.58;20.67;;;3.00;97.50;;;;;;5059831;28;20467;-71
2021/01/25 04:57:09;;;;;;;47.50;21.27;;;2.80;97.60;;;;;;5064503;28;20051;-71
2021/01/25 04:59:36;;;;;;;47.67;21.58;;;2.90;97.80;;;;;;5075817;28;20446;-71
2021/01/25 05:02:02;;;;;;;52.80;22.15;;;2.80;97.70;;;;;;5076945;28;20034;-71
2021/01/25 05:04:28;;;;;;;47.60;21.63;;;2.90;97.80;;;;;;5075762;28;20036;-72
2021/01/25 05:06:53;;;;;;;50.42;21.75;;;2.90;97.60;;;;;;5075043;28;20423;-71
2021/01/25 05:09:19;;;;;;;47.92;22.58;;;2.80;97.60;;;;;;5075321;28;20029;-72
2021/01/25 05:11:56;;;;;;;46.67;20.00;;;2.80;97.80;;;;;;5075471;28;20025;-72
2021/01/25 05:14:22;;;;;;;44.05;20.45;;;2.80;97.70;;;;;;5075312;28;20021;-71
2021/01/25 05:16:48;;;;;;;47.60;20.98;;;2.70;97.80;;;;;;5075938;28;20028;-71
2021/01/25 05:19:14;;;;;;;50.75;19.98;;;2.70;97.80;;;;;;5073652;28;20411;-71
2021/01/25 05:21:44;;;;;;;47.22;20.23;;;2.60;97.80;;;;;;5073755;28;20223;-71
2021/01/25 05:24:11;;;;;;;45.30;20.33;;;2.60;97.90;;;;;;5074794;28;20101;-71
2021/01/25 05:26:56;;;;;;;42.85;20.23;;;2.70;97.90;;;;;;5074182;28;20098;-71
2021/01/25 05:29:26;;;;;;;40.40;18.83;;;2.70;97.90;;;;;;5071045;28;20104;-72
2021/01/25 05:31:52;;;;;;;47.17;20.63;;;2.70;97.90;;;;;;5056526;28;20063;-72
2021/01/25 05:34:19;;;;;;;50.58;21.75;;;2.60;97.90;;;;;;5073746;28;20485;-72
2021/01/25 05:36:45;;;;;;;47.58;21.35;;;2.60;97.90;;;;;;5074800;28;20044;-71
2021/01/25 05:39:14;;;;;;;47.75;20.80;;;2.60;98.40;;;;;;5074573;28;20036;-71
2021/01/25 05:41:51;;;;;;;50.95;21.52;;;2.70;98.30;;;;;;5073887;28;20044;-72
2021/01/25 05:44:16;;;;;;;51.63;22.13;;;2.90;98.20;;;;;;5074813;28;20032;-71
2021/01/25 05:46:42;;;;;;;53.65;22.45;;;3.00;98.00;;;;;;5076666;28;20350;-71
2021/01/25 05:49:08;;;;;;;49.55;21.02;;;3.00;97.80;;;;;;5073560;28;20369;-73
2021/01/25 05:51:33;;;;;;;50.10;22.23;;;2.80;97.70;;;;;;5062027;28;20033;-72
2021/01/25 05:54:02;;;;;;;53.15;21.75;;;2.80;97.90;;;;;;5054314;28;20044;-70
2021/01/25 05:56:29;;;;;;;46.08;20.15;;;2.70;97.90;;;;;;5054733;28;20091;-71
2021/01/25 05:58:55;;;;;;;57.03;23.23;;;2.70;97.90;;;;;;5055811;28;20295;-71
2021/01/25 06:01:24;;;;;;;49.83;22.92;;;2.70;97.80;;;;;;5054270;28;20041;-71
2021/01/25 06:03:50;;;;;;;47.33;21.58;;;2.70;97.90;;;;;;5069025;28;20060;-71
2021/01/25 06:06:24;;;;;;;57.90;21.80;;;2.60;97.90;;;;;;5073615;28;20043;-71
2021/01/25 06:08:52;;;;;;;49.90;21.58;;;2.60;98.00;;;;;;5074321;28;20037;-71
2021/01/25 06:11:22;;;;;;;53.60;22.38;;;2.70;97.90;;;;;;5073993;28;20028;-71
2021/01/25 06:13:52;;;;;;;50.38;20.73;;;2.70;97.90;;;;;;5076054;28;20021;-72
2021/01/25 06:16:20;;;;;;;45.28;20.20;;;2.60;98.00;;;;;;5055582;28;20091;-71
2021/01/25 06:18:47;;;;;;;42.75;20.13;;;2.50;98.10;;;;;;5068438;28;20373;-72
2021/01/25 06:21:21;;;;;;;50.28;19.63;;;2.50;98.20;;;;;;5074034;28;20032;-72
2021/01/25 06:23:47;;;;;;;54.95;20.88;;;2.50;98.20;;;;;;5073948;28;20226;-72
2021/01/25 06:26:13;;;;;;;48.80;19.33;;;2.40;98.20;;;;;;5072701;28;20024;-72
2021/01/25 06:28:41;;;;;;;50.85;20.95;;;2.40;98.30;;;;;;5075386;28;20025;-72
2021/01/25 06:31:07;;;;;;;46.88;20.88;;;2.50;98.20;;;;;;5056787;28;20036;-71
2021/01/25 06:33:40;;;;;;;44.05;19.27;;;2.50;98.10;;;;;;5052635;28;20043;-71
2021/01/25 06:36:10;;;;;;;47.70;19.92;;;2.50;98.10;;;;;;5053841;28;20071;-71
2021/01/25 06:38:36;;;;;;;47.65;20.08;;;2.40;98.00;;;;;;5058518;28;20125;-70
2021/01/25 06:41:13;;;;;;;50.17;20.75;;;2.30;98.40;;;;;;5075109;28;20190;-70
2021/01/25 06:43:47;;;;;;;46.88;20.60;;;2.60;98.50;;;;;;5052547;28;20094;-70
2021/01/25 06:46:18;;;;;;;50.90;20.48;;;2.60;98.40;;;;;;5052580;28;20032;-70
2021/01/25 06:48:51;;;;;;;51.88;20.65;;;2.60;98.10;;;;;;5052628;28;20052;-70
2021/01/25 06:51:19;;;;;;;44.40;20.42;;;2.50;98.00;;;;;;5053292;28;20348;-70
2021/01/25 06:53:48;;;;;;;44.42;20.02;;;2.50;98.00;;;;;;5059412;28;20037;-70
2021/01/25 06:56:14;;;;;;;42.25;19.45;;;2.40;98.10;;;;;;5073333;28;20112;-70
2021/01/25 06:58:49;;;;;;;42.28;19.80;;;2.50;98.10;;;;;;5074700;28;20036;-70
2021/01/25 07:01:22;;;;;;;47.10;19.33;;;2.40;98.10;;;;;;5054876;28;20037;-70
2021/01/25 07:03:56;;;;;;;47.47;19.30;;;2.50;98.20;;;;;;5067703;28;20103;-69
2021/01/25 07:06:44;;;;;;;39.50;18.60;;;2.60;98.20;;;;;;5072919;28;20039;-70
2021/01/25 07:09:10;;;;;;;44.97;19.63;;;2.50;98.10;;;;;;5068959;28;20075;-70
2021/01/25 07:11:36;;;;;;;41.47;18.42;;;2.40;98.10;;;;;;5072938;28;20052;-70
2021/01/25 07:14:03;;;;;;;41.35;19.23;;;2.50;98.20;;;;;;5074556;28;20105;-69
2021/01/25 07:16:29;;;;;;;45.05;19.80;;;2.60;98.20;;;;;;5073044;28;20048;-69
2021/01/25 07:18:54;;;;;;;47.25;19.80;;;2.60;98.00;;;;;;5070982;28;20084;-70
2021/01/25 07:21:22;;;;;;;38.72;18.13;;;2.70;97.90;;;;;;5062096;28;20084;-70
2021/01/25 07:23:49;;;;;;;45.03;18.87;;;2.60;97.80;;;;;;5058784;28;20510;-70
2021/01/25 07:26:16;;;;;;;46.20;20.88;;;2.60;97.80;;;;;;5070716;28;20344;-70
2021/01/25 07:28:43;;;;;;;48.28;18.92;;;2.70;97.90;;;;;;5053101;28;20491;-70
2021/01/25 07:31:10;;;;;;;39.08;17.42;;;2.60;97.60;;;;;;5052622;28;20075;-70
2021/01/25 07:33:36;;;;;;;52.38;18.58;;;2.60;97.70;;;;;;5052554;28;20503;-70
2021/01/25 07:36:03;;;;;;;35.40;16.88;;;2.60;97.80;;;;;;5052533;28;20095;-69
2021/01/25 07:38:36;;;;;;;45.05;18.85;;;2.60;97.70;;;;;;5099848;27;20852;-69
2021/01/25 07:41:02;;;;;;;43.67;19.10;;;2.50;97.70;;;;;;5070386;28;20021;-69
2021/01/25 07:43:30;;;;;;;42.70;19.20;;;2.60;97.80;;;;;;5049390;28;20033;-70
2021/01/25 07:46:07;;;;;;;42.58;19.52;;;2.60;97.80;;;;;;5048879;28;20117;-69
2021/01/25 07:48:33;;;;;;;44.95;18.48;;;2.70;97.80;;;;;;5053183;28;20116;-70
2021/01/25 07:50:59;;;;;;;41.75;17.08;;;2.70;97.80;;;;;;5029869;28;20033;-69
2021/01/25 07:53:25;;;;;;;50.63;19.48;;;2.50;97.70;;;;;;5028634;28;20038;-69
2021/01/25 07:55:51;;;;;;;39.05;18.58;;;2.50;97.90;;;;;;5045890;28;20083;-69
2021/01/25 07:58:17;;;;;;;46.92;18.70;;;2.50;98.00;;;;;;5028874;28;20033;-69
2021/01/25 08:00:43;;;;;;;50.13;20.77;;;2.50;98.00;;;;;;5028551;28;20026;-69
2021/01/25 08:03:42;;;;;;;42.55;18.50;;;2.70;98.00;;;;;;5028804;28;20034;-69
2021/01/25 08:06:10;;;;;;;41.15;17.85;;;2.60;98.00;;;;;;5038851;28;20414;-70
2021/01/25 08:08:36;;;;;;;45.60;18.50;;;2.60;98.10;;;;;;5028695;28;20091;-70
2021/01/25 08:11:06;;;;;;;41.17;18.00;;;2.50;97.90;;;;;;5030162;28;20068;-68
2021/01/25 08:14:03;;;;;;;38.90;17.15;;;2.60;98.00;;;;;;5028859;28;20025;-73
2021/01/25 08:16:35;;;;;;;41.03;17.38;;;2.60;98.00;;;;;;5000030;28;20045;-68
2021/01/25 08:19:21;;;;;;;43.42;17.90;;;2.50;98.00;;;;;;5057097;28;20038;-69
2021/01/25 08:22:04;;;;;;;34.22;15.90;;;2.60;98.00;;;;;;5028534;28;20044;-70
2021/01/25 08:24:32;;;;;;;40.40;17.50;;;2.60;98.00;;;;;;5028161;28;20464;-69
2021/01/25 08:27:12;;;;;;;56.15;18.67;;;2.70;97.90;;;;;;5060337;28;20376;-68
2021/01/25 08:29:37;;;;;;;45.53;18.00;;;2.60;97.80;;;;;;5028387;28;20049;-70
2021/01/25 08:32:12;;;;;;;41.28;16.55;;;2.60;97.90;;;;;;5027905;28;20033;-69
2021/01/25 08:34:37;;;;;;;41.22;17.60;;;2.60;97.80;;;;;;5029694;28;20053;-70
2021/01/25 08:37:08;;;;;;;42.92;17.77;;;2.60;97.90;;;;;;5027929;28;20096;-69
2021/01/25 08:39:46;;;;;;;44.47;18.25;;;2.60;97.90;;;;;;5059867;28;20033;-69
2021/01/25 08:42:24;;;;;;;43.85;17.80;;;2.60;98.00;;;;;;5028007;28;20033;-69
2021/01/25 08:44:55;;;;;;;35.20;17.35;;;2.60;98.00;;;;;;5027825;28;20124;-69
2021/01/25 08:47:27;;;;;;;37.95;16.75;;;2.60;98.00;;;;;;5028078;28;20029;-69
2021/01/25 08:49:53;;;;;;;41.35;16.90;;;2.70;97.90;;;;;;5016849;28;20029;-69
2021/01/25 08:52:27;;;;;;;45.80;18.23;;;2.70;97.90;;;;;;5014898;28;20038;-70
2021/01/25 08:55:24;;;;;;;36.85;17.40;;;2.70;97.90;;;;;;5014406;28;20092;-75
2021/01/25 08:57:50;;;;;;;37.78;17.83;;;2.80;98.00;;;;;;5014194;28;20042;-70
2021/01/25 09:00:30;;;;;;;37.13;16.73;;;2.90;98.00;;;;;;5014742;28;20297;-70
2021/01/25 09:03:03;;;;;;;37.47;15.60;;;3.00;97.90;;;;;;5012701;28;20045;-80
2021/01/25 09:05:30;;;;;;;41.42;16.80;;;3.10;97.90;;;;;;5013547;28;20460;-80
2021/01/25 09:07:56;;;;;;;35.95;15.98;;;3.20;97.80;;;;;;5016031;28;20034;-80
2021/01/25 09:10:22;;;;;;;38.50;16.50;;;3.30;97.80;;;;;;5014037;28;20126;-80
2021/01/25 09:12:47;;;;;;;40.28;16.45;;;3.40;97.70;;;;;;5013997;28;20125;-80
2021/01/25 09:15:14;;;;;;;41.30;16.25;;;3.50;97.70;;;;;;5014343;28;20412;-78
2021/01/25 09:17:40;;;;;;;45.67;16.73;;;3.70;97.70;;;;;;5013740;28;20388;-79
2021/01/25 09:20:07;;;;;;;36.80;15.68;;;3.80;97.60;;;;;;5029518;28;20029;-80
2021/01/25 09:22:34;;;;;;;33.85;15.02;;;4.00;97.40;;;;;;5015707;28;20017;-80
2021/01/25 09:25:00;;;;;;;35.67;15.77;;;4.00;97.00;;;;;;5013695;28;20108;-79
2021/01/25 09:27:26;;;;;;;37.60;16.00;;;4.20;97.00;;;;;;5029477;28;20042;-80
2021/01/25 09:29:52;;;;;;;37.00;14.55;;;4.10;96.80;;;;;;5014165;28;20430;-80
2021/01/25 09:32:18;;;;;;;30.67;13.65;;;4.20;96.90;;;;;;5014007;28;20025;-81
2021/01/25 09:34:45;;;;;;;27.67;13.55;;;4.20;96.90;;;;;;5015688;28;20118;-79
2021/01/25 09:37:12;;;;;;;36.85;13.05;;;4.40;96.80;;;;;;5013453;28;20549;-81
2021/01/25 09:39:39;;;;;;;34.33;14.48;;;4.40;96.50;;;;;;5013680;28;20140;-81
2021/01/25 09:42:06;;;;;;;36.30;13.48;;;4.50;96.30;;;;;;5013381;28;20045;-82
2021/01/25 09:44:35;;;;;;;28.90;12.65;;;4.50;96.30;;;;;;5013787;28;20389;-80
2021/01/25 09:47:01;;;;;;;31.00;11.38;;;4.60;96.20;;;;;;5030483;28;20030;-80
2021/01/25 09:49:26;;;;;;;28.70;12.35;;;4.80;96.30;;;;;;5013630;28;20124;-80
2021/01/25 09:51:52;;;;;;;23.23;9.85;;;5.00;95.80;;;;;;5013369;28;20053;-79
2021/01/25 09:54:18;;;;;;;24.50;10.15;;;5.20;95.60;;;;;;5003224;28;20061;-83
2021/01/25 09:56:44;;;;;;;21.65;10.05;;;5.30;95.20;;;;;;4994432;28;20048;-84
2021/01/25 09:59:10;;;;;;;21.58;10.50;;;5.50;94.90;;;;;;4994414;28;20057;-84
2021/01/25 10:01:35;;;;;;;21.92;8.93;;;5.60;94.90;;;;;;4995106;28;20014;-83
2021/01/25 10:04:01;;;;;;;21.80;9.02;;;5.50;94.60;;;;;;5010202;28;20083;-81
2021/01/25 10:06:28;;;;;;;21.45;8.45;;;5.50;94.50;;;;;;5013707;28;20061;-82
2021/01/25 10:08:54;;;;;;;25.27;9.32;;;5.80;94.30;;;;;;5013333;28;20372;-85
2021/01/25 10:11:20;;;;;;;17.05;7.47;;;5.80;94.00;;;;;;5013530;28;20037;-82
2021/01/25 10:13:46;;;;;;;18.70;7.97;;;5.70;93.90;;;;;;5015273;28;20018;-82
2021/01/25 10:16:12;;;;;;;15.48;7.22;;;5.80;93.60;;;;;;5014010;28;20057;-81
2021/01/25 10:18:37;;;;;;;18.63;7.28;;;5.80;93.50;;;;;;5013231;28;20065;-82
2021/01/25 10:21:03;;;;;;;16.17;7.30;;;5.90;93.30;;;;;;5013157;28;20464;-80
2021/01/25 10:23:29;;;;;;;14.07;6.38;;;5.90;93.20;;;;;;5012137;28;20136;-81
2021/01/25 10:25:55;;;;;;;17.15;6.47;;;5.80;92.80;;;;;;5013802;28;20119;-81
2021/01/25 10:28:21;;;;;;;13.07;6.05;;;5.90;93.10;;;;;;5013191;28;20124;-82
2021/01/25 10:30:47;;;;;;;12.63;5.72;;;5.80;92.60;;;;;;5013178;28;20030;-84
2021/01/25 10:33:13;;;;;;;13.90;6.28;;;5.70;93.00;;;;;;5013458;28;20034;-81
2021/01/25 10:35:39;;;;;;;17.65;6.82;;;5.90;93.00;;;;;;5012902;28;20033;-83
2021/01/25 10:38:05;;;;;;;18.52;6.40;;;6.00;92.90;;;;;;5012897;28;20383;-81
2021/01/25 10:40:31;;;;;;;16.83;6.13;;;5.70;92.60;;;;;;5030209;28;20087;-83
2021/01/25 10:42:57;;;;;;;17.20;6.78;;;5.60;92.70;;;;;;5013147;28;20080;-83
2021/01/25 10:45:22;;;;;;;15.68;6.00;;;5.70;92.80;;;;;;5012831;28;20104;-84
2021/01/25 10:47:48;;;;;;;12.15;6.13;;;5.90;92.80;;;;;;5011775;28;20550;-82
2021/01/25 10:50:14;;;;;;;15.13;5.88;;;6.00;92.50;;;;;;5011277;28;20067;-82
2021/01/25 10:52:40;;;;;;;14.02;5.80;;;5.70;92.50;;;;;;5029771;28;20092;-83
2021/01/25 10:55:07;;;;;;;13.35;5.60;;;5.70;92.70;;;;;;5012464;28;20034;-82
2021/01/25 10:57:33;;;;;;;21.50;8.20;;;5.70;92.50;;;;;;5012373;28;20041;-83
2021/01/25 11:00:12;;;;;;;19.05;6.78;;;5.70;92.50;;;;;;5012948;28;20038;-82
2021/01/25 11:02:39;;;;;;;17.45;7.10;;;5.70;92.60;;;;;;5012422;28;20101;-82
2021/01/25 11:05:07;;;;;;;18.85;6.85;;;5.60;92.70;;;;;;5012072;28;20030;-81
2021/01/25 11:07:33;;;;;;;;;;;5.60;92.90;;;;;;5013515;28;20057;-84
2021/01/25 11:09:59;;;;;;;21.67;7.00;;;5.70;92.80;;;;;;5027663;28;19979;-79
2021/01/25 11:12:24;;;;;;;17.27;7.60;;;5.70;93.00;;;;;;5012312;28;20456;-79
2021/01/25 11:14:50;;;;;;;16.73;7.68;;;5.80;93.00;;;;;;5012443;28;20038;-82
2021/01/25 11:17:16;;;;;;;20.30;8.27;;;5.70;93.00;;;;;;5011075;28;20403;-86
2021/01/25 11:19:42;;;;;;;19.67;8.35;;;5.80;92.80;;;;;;5013457;28;20046;-76
2021/01/25 11:22:07;;;;;;;23.70;7.97;;;5.90;92.90;;;;;;5011047;28;20123;-79
2021/01/25 11:24:33;;;;;;;23.17;7.68;;;5.80;92.80;;;;;;5010932;28;20081;-79
2021/01/25 11:27:02;;;;;;;19.92;8.27;;;5.60;93.00;;;;;;5011834;28;20048;-80
2021/01/25 11:29:30;;;;;;;25.05;12.05;;;5.70;93.00;;;;;;5011785;28;20034;-79
2021/01/25 11:32:00;;;;;;;23.15;10.63;;;5.60;93.10;;;;;;5013479;28;20096;-79
2021/01/25 11:34:26;;;;;;;18.85;8.48;;;5.60;93.10;;;;;;5011732;28;20104;-79
2021/01/25 11:36:52;;;;;;;21.70;9.02;;;5.80;93.00;;;;;;5011720;28;20112;-77
2021/01/25 11:39:18;;;;;;;21.52;9.50;;;5.90;92.90;;;;;;5011793;28;20030;-77
2021/01/25 11:41:44;;;;;;;19.70;8.63;;;5.90;92.80;;;;;;5010743;28;20038;-78
2021/01/25 11:44:09;;;;;;;26.70;8.85;;;6.00;92.60;;;;;;5011617;28;20030;-77
2021/01/25 11:46:35;;;;;;;28.80;9.65;;;6.10;92.60;;;;;;5013381;28;20018;-76
2021/01/25 11:49:00;;;;;;;22.40;9.23;;;6.50;92.40;;;;;;5026897;28;20038;-75
2021/01/25 11:51:26;;;;;;;20.65;8.63;;;6.60;92.20;;;;;;5011845;28;20372;-73
2021/01/25 11:53:52;;;;;;;15.73;7.88;;;6.80;91.90;;;;;;5011803;28;20104;-71
2021/01/25 11:56:18;;;;;;;23.45;8.60;;;7.10;91.60;;;;;;5012064;28;20041;-72
2021/01/25 11:58:44;;;;;;;21.48;7.93;;;7.10;91.50;;;;;;5013424;28;20047;-72
2021/01/25 12:01:09;;;;;;;18.98;8.38;;;7.50;91.40;;;;;;5011795;28;20066;-69
2021/01/25 12:03:35;;;;;;;25.13;9.50;;;7.60;90.90;;;;;;5011672;28;20038;-71
2021/01/25 12:06:00;;;;;;;18.20;8.90;;;7.60;90.80;;;;;;5011146;28;20041;-69
2021/01/25 12:08:26;;;;;;;17.73;9.02;;;7.90;90.70;;;;;;5026669;28;20331;-70
2021/01/25 12:10:52;;;;;;;15.95;7.55;;;7.70;90.30;;;;;;5013200;28;20087;-69
2021/01/25 12:13:18;;;;;;;13.57;7.93;;;7.70;90.20;;;;;;5011716;28;20049;-70
2021/01/25 12:15:44;;;;;;;17.33;7.40;;;7.60;89.40;;;;;;5011801;28;20084;-69
2021/01/25 12:18:10;;;;;;;17.17;7.65;;;7.70;90.10;;;;;;5011588;28;20046;-68
2021/01/25 12:20:36;;;;;;;18.65;8.18;;;7.60;88.20;;;;;;5011460;28;20464;-68
2021/01/25 12:23:02;;;;;;;20.00;8.10;;;7.60;89.30;;;;;;5013200;28;20318;-69
2021/01/25 12:25:27;;;;;;;15.73;7.72;;;7.30;89.00;;;;;;5015342;28;20057;-70
2021/01/25 12:27:54;;;;;;;21.83;8.55;;;7.30;89.50;;;;;;5030678;28;20061;-69
2021/01/25 12:30:20;;;;;;;19.50;8.18;;;7.10;89.60;;;;;;5015217;28;20059;-69
2021/01/25 12:32:46;;;;;;;17.45;7.35;;;6.90;89.70;;;;;;5014906;28;20034;-70
2021/01/25 12:35:12;;;;;;;22.67;8.55;;;7.00;89.40;;;;;;5015015;28;20024;-70
2021/01/25 12:37:39;;;;;;;17.75;8.90;;;6.80;90.00;;;;;;5015535;28;20057;-68
2021/01/25 12:40:08;;;;;;;21.45;8.82;;;7.00;90.30;;;;;;4997547;28;20065;-70
2021/01/25 12:42:34;;;;;;;16.00;8.35;;;7.10;90.20;;;;;;4995472;28;20035;-69